YMMLYMHB

Guest
Details From YMML - Melbourne Intl
To YMHB - Hobart
Flight Number -
Tags Generated
Created
Modified
Stats Distance 333 nm / 617 km
Max Altitude 0 ft / 0 m
Waypoints 3
Social Downloads 2
Likes 0
Share VATSIM

Download

Looking for another format? Having issues loading an existing format? Contact us
Advertisement - Login to hide

Notes

Generated

Route

YMML BARIL YMHB

ID Type Via Altitude Latitude Longitude Leg Dist Tot Dist Heading (true) Name
O YMML APT - 0 ft / 0 m -37.66220˚ 144.84819˚ - 0 nm - -
BARIL FIX - 0 ft / 0 m -42.75699˚ 147.45511˚ 328 nm 328 nm 159° / 158° -
O YMHB APT - 0 ft / 0 m -42.82898˚ 147.50206˚ 4 nm 333 nm 154° / 154° -

Altitude Profile

Advertisement - Login to hide

Weather


0- 5 10 15 20 25 30 35+ Temperature / ° C

Clouds and Precipitation
Forecast for 2018-05-22 12:00 UTC. Updated an hour ago

Ground ~20,000 ft ~40,000 ft Winds

YMML

Details ICAO YMML (MEL)
Name Melbourne Intl
Region Australia
Timezone Australia/Melbourne (UTC+10.0)
Stats Elevation 433 ft / 132 m (AMSL)
Location -37.665301° 144.836668°
Runways 2
Magnetic Variation 11.508° E

METAR

YMML 221230Z 24007KT 9999 FEW012 SCT035 BKN045 12/11 Q1026 NOSIG

Decode

TAF

TAF YMML 221114Z 2212/2318 25008KT 9999 -SHRA FEW015 BKN030 FM222300 25012KT 9999 -SHRA BKN035 FM231000 25010KT 9999 BKN035

Decode

Departure Runways

ID Width Length Bearing (true) Bearing (mag) Surface Threshold Offset Overrun Length
09 148 ft / 45 m 7,494 ft / 2,284 m 94.01° 82.50° Asphalt 0 ft / 0 m 0 ft / 0 m
16 148 ft / 45 m 12,008 ft / 3,660 m 171.02° 159.51° Asphalt 98 ft / 30 m 0 ft / 0 m
27 148 ft / 45 m 7,494 ft / 2,284 m 274.00° 262.49° Asphalt 0 ft / 0 m 0 ft / 0 m
34 148 ft / 45 m 12,008 ft / 3,660 m 351.01° 339.50° Asphalt 98 ft / 30 m 0 ft / 0 m

YMHB

Details ICAO YMHB (HBA)
Name Hobart
Region Australia
Timezone Australia/Hobart (UTC+10.0)
Stats Elevation 12 ft / 4 m (AMSL)
Location -42.836167° 147.511798°
Runways 1
Magnetic Variation 15.114° E

METAR

YMHB 221230Z 31005KT 9999 FEW045 08/02 Q1018

Decode

TAF

TAF YMHB 221125Z 2212/2312 30010KT 9999 SCT040 FM230000 29014KT 9999 SCT035

Decode

Destination Runways

ID Width Length Bearing (true) Bearing (mag) Surface Threshold Offset Overrun Length
12 148 ft / 45 m 7,379 ft / 2,249 m 135.11° 120.00° Asphalt 0 ft / 0 m 0 ft / 0 m
30 148 ft / 45 m 7,379 ft / 2,249 m 315.09° 299.98° Asphalt 0 ft / 0 m 0 ft / 0 m

Approach Navaids

Runway Type Ident Frequency Range Bearing (true) Bearing (mag) Slope Elevation
12 Localiser IHB 109.90 MHz 18 nm / 33 km 135.13° 120.02° - 12 ft / 4 m (AMSL)
12 Glidescope IHB 109.90 MHz 10 nm / 19 km 135.10° 119.99° 3.00° 12 ft / 4 m (AMSL)

Popular Alternatives